Kristin D — C6XA6 — position and weather

sailwx.info

Track history (hours):
 
Tides and Currents Weather Stations Pressure Air Temp Water Temp Dewpoint Dewpoint Depression Visibility Wind Speed Wind Dir Waves Ship Positions

Kristin D

Last reported at 2015-Jul-31 18:33 UTC. Time now 2015-Jul-31 19:24 UTC.
Position N 53°35' E 005°36'.

Length 90 m; draft 3.9 m.

Type: Cargo ship. MMSI: 311003700.

Date/timePositionNaut miles runAvg speedWind from/ knotsBaromVisibWave heightAir tempDewpointWater temp
2015-Jul-31 18:33N 53°35' E 005°36'1111.2
2015-Jul-31 17:33N 53°31' E 005°18'1212.1
2015-Jul-31 16:33N 53°27' E 004°59'1212.0
2015-Jul-31 15:33N 53°21' E 004°42'2512.2
2015-Jul-31 13:32N 52°60' E 004°21'1111.3
2015-Jul-31 12:33N 52°50' E 004°12'1110.8
2015-Jul-31 11:33N 52°41' E 004°03'8610.6
2015-Jul-31 03:25N 51°38' E 002°27'1112.4
2015-Jul-31 02:33N 51°30' E 002°16'1312.6
2015-Jul-31 01:33N 51°19' E 002°07'1313.1
2015-Jul-31 00:33N 51°09' E 001°53'1414.2
2015-Jul-30 23:33N 50°59' E 001°37'1414.4
2015-Jul-30 22:33N 50°47' E 001°25'  
2015-Jul-27 22:32N 41°13' W 009°03'1010.0
2015-Jul-27 21:33N 41°04' W 008°59'1210.2
2015-Jul-27 20:21N 40°52' W 008°54'810.2
2015-Jul-27 19:33N 40°44' W 008°51'8 0.2
2015-Jul-26 08:30N 40°39' W 008°44'0 0.0
2015-Jul-26 07:24N 40°39' W 008°44'0 0.0
2015-Jul-26 06:33N 40°39' W 008°44'0 0.0
2015-Jul-26 05:33N 40°39' W 008°44'0 0.0
2015-Jul-26 04:27N 40°39' W 008°44'0 0.0
2015-Jul-26 03:24N 40°39' W 008°44'0 0.0
2015-Jul-26 02:33N 40°39' W 008°44'0 0.0
2015-Jul-25 20:15N 40°39' W 008°44'4 0.6
2015-Jul-25 13:16N 40°40' W 008°49'0 0.0
2015-Jul-25 10:19N 40°40' W 008°49'0 0.0
2015-Jul-25 09:31N 40°40' W 008°49'1 0.6
2015-Jul-25 08:33N 40°40' W 008°49'  
Track history (hours):
 
Tides and Currents Weather Stations Pressure Air Temp Water Temp Dewpoint Dewpoint Depression Visibility Wind Speed Wind Dir Waves Ship Positions

Kristin D

Last reported at 2015-Jul-31 18:33 UTC. Time now 2015-Jul-31 19:24 UTC.
Position N 53°35' E 005°36'.

Length 90 m; draft 3.9 m.

Type: Cargo ship. MMSI: 311003700.

Date/timePositionNaut miles runAvg speedWind from/ knotsBaromVisibWave heightAir tempDewpointWater temp
2015-Jul-31 18:33N 53°35' E 005°36'1111.2
2015-Jul-31 17:33N 53°31' E 005°18'1212.1
2015-Jul-31 16:33N 53°27' E 004°59'1212.0
2015-Jul-31 15:33N 53°21' E 004°42'2512.2
2015-Jul-31 13:32N 52°60' E 004°21'1111.3
2015-Jul-31 12:33N 52°50' E 004°12'1110.8
2015-Jul-31 11:33N 52°41' E 004°03'8610.6
2015-Jul-31 03:25N 51°38' E 002°27'1112.4
2015-Jul-31 02:33N 51°30' E 002°16'1312.6
2015-Jul-31 01:33N 51°19' E 002°07'1313.1
2015-Jul-31 00:33N 51°09' E 001°53'1414.2
2015-Jul-30 23:33N 50°59' E 001°37'1414.4
2015-Jul-30 22:33N 50°47' E 001°25'  
2015-Jul-27 22:32N 41°13' W 009°03'1010.0
2015-Jul-27 21:33N 41°04' W 008°59'1210.2
2015-Jul-27 20:21N 40°52' W 008°54'810.2
2015-Jul-27 19:33N 40°44' W 008°51'8 0.2
2015-Jul-26 08:30N 40°39' W 008°44'0 0.0
2015-Jul-26 07:24N 40°39' W 008°44'0 0.0
2015-Jul-26 06:33N 40°39' W 008°44'0 0.0
2015-Jul-26 05:33N 40°39' W 008°44'0 0.0
2015-Jul-26 04:27N 40°39' W 008°44'0 0.0
2015-Jul-26 03:24N 40°39' W 008°44'0 0.0
2015-Jul-26 02:33N 40°39' W 008°44'0 0.0
2015-Jul-25 20:15N 40°39' W 008°44'4 0.6
2015-Jul-25 13:16N 40°40' W 008°49'0 0.0
2015-Jul-25 10:19N 40°40' W 008°49'0 0.0
2015-Jul-25 09:31N 40°40' W 008°49'1 0.6
2015-Jul-25 08:33N 40°40' W 008°49'  

Dump ship's entire track history